createdAt,value
2023-02-11T00:01:44.895Z,17.97
2023-02-11T00:04:11.259Z,20.30
2023-02-11T00:06:37.879Z,17.80
2023-02-11T00:09:05.155Z,19.37
2023-02-11T00:11:31.585Z,18.93
2023-02-11T00:14:00.284Z,20.67
2023-02-11T00:16:27.812Z,19.37
2023-02-11T00:18:54.196Z,18.17
2023-02-11T00:21:25.986Z,19.23
2023-02-11T00:23:53.501Z,18.30
2023-02-11T00:26:25.532Z,18.80
2023-02-11T00:28:53.253Z,18.07
2023-02-11T00:31:21.911Z,20.50
2023-02-11T00:33:48.765Z,18.23
2023-02-11T00:36:22.274Z,18.93
2023-02-11T00:38:50.253Z,18.73
2023-02-11T00:41:17.593Z,19.10
2023-02-11T00:43:44.861Z,18.87
2023-02-11T00:46:11.781Z,20.07
2023-02-11T00:48:38.185Z,19.80
2023-02-11T00:51:05.283Z,20.47
2023-02-11T00:53:32.614Z,19.50
2023-02-11T00:55:59.063Z,19.40
2023-02-11T00:58:25.420Z,20.07
2023-02-11T01:00:52.437Z,18.67
2023-02-11T01:03:18.844Z,20.50
2023-02-11T01:05:45.234Z,21.90
2023-02-11T01:08:11.700Z,19.33
2023-02-11T01:10:38.338Z,20.00
2023-02-11T01:13:06.437Z,20.57
2023-02-11T01:15:33.454Z,18.57
2023-02-11T01:17:59.794Z,20.47
2023-02-11T01:20:27.651Z,22.40
2023-02-11T01:22:54.160Z,20.80
2023-02-11T01:25:20.512Z,20.33
2023-02-11T01:27:46.905Z,20.80
2023-02-11T01:30:14.304Z,20.50
2023-02-11T01:32:40.757Z,21.83
2023-02-11T01:35:07.674Z,22.63
2023-02-11T01:37:34.345Z,22.30
2023-02-11T01:40:10.737Z,22.80
2023-02-11T01:42:37.143Z,23.60
2023-02-11T01:45:41.817Z,22.47
2023-02-11T01:48:11.041Z,21.70
2023-02-11T01:50:40.667Z,21.97
2023-02-11T01:53:27.291Z,21.70
2023-02-11T01:56:21.255Z,21.20
2023-02-11T01:58:51.549Z,22.00
2023-02-11T02:01:23.624Z,21.63
2023-02-11T02:03:54.225Z,21.50
2023-02-11T02:06:34.653Z,21.07
2023-02-11T02:09:09.517Z,20.87
2023-02-11T02:11:36.274Z,21.70
2023-02-11T02:14:03.419Z,20.53
2023-02-11T02:16:33.620Z,16.97
2023-02-11T02:19:21.768Z,17.30
2023-02-11T02:22:18.270Z,21.80
2023-02-11T02:25:00.678Z,19.13
2023-02-11T02:27:40.090Z,19.77
2023-02-11T02:30:28.696Z,20.50
2023-02-11T02:33:24.255Z,21.17
2023-02-11T02:36:07.213Z,19.30
2023-02-11T02:38:41.680Z,19.17
2023-02-11T02:41:15.597Z,18.70
2023-02-11T02:43:45.327Z,19.57
2023-02-11T02:46:26.597Z,20.87
2023-02-11T02:48:54.581Z,19.90
2023-02-11T02:51:39.037Z,20.00
2023-02-11T02:54:30.656Z,18.20
2023-02-11T02:57:20.232Z,18.67
2023-02-11T03:00:06.848Z,18.37
2023-02-11T03:02:47.835Z,18.77
2023-02-11T03:05:17.786Z,17.70
2023-02-11T03:07:48.451Z,20.30
2023-02-11T03:10:30.082Z,19.37
2023-02-11T03:12:57.546Z,17.83
2023-02-11T03:15:27.679Z,19.43
2023-02-11T03:17:58.531Z,18.23
2023-02-11T03:20:25.635Z,17.70
2023-02-11T03:23:02.161Z,16.10
2023-02-11T03:25:34.530Z,17.10
2023-02-11T03:28:10.083Z,17.07
2023-02-11T03:30:46.827Z,18.10
2023-02-11T03:34:04.242Z,17.13
2023-02-11T03:36:46.126Z,15.50
2023-02-11T03:39:19.762Z,17.23
2023-02-11T03:41:49.166Z,15.57
2023-02-11T03:44:17.051Z,15.17
2023-02-11T03:46:50.139Z,16.27
2023-02-11T03:49:20.257Z,14.73
2023-02-11T03:51:49.391Z,15.10
2023-02-11T03:54:24.157Z,15.13
2023-02-11T03:56:53.825Z,14.77
2023-02-11T03:59:20.615Z,14.90
2023-02-11T04:01:47.185Z,15.80
2023-02-11T04:04:14.148Z,14.30
2023-02-11T04:06:40.929Z,14.10
2023-02-11T04:09:07.289Z,14.23
2023-02-11T04:11:33.738Z,14.80
2023-02-11T04:14:00.233Z,15.50
2023-02-11T04:16:26.720Z,12.60
2023-02-11T04:18:53.257Z,12.80
2023-02-11T04:21:19.581Z,13.67
2023-02-11T04:23:46.064Z,14.40
2023-02-11T04:26:12.392Z,13.00
2023-02-11T04:28:38.935Z,14.47
2023-02-11T04:31:05.589Z,13.60
2023-02-11T04:33:32.117Z,13.27
2023-02-11T04:35:58.457Z,15.10
2023-02-11T04:38:24.825Z,13.80
2023-02-11T04:40:51.369Z,13.80
2023-02-11T04:43:17.882Z,12.30
2023-02-11T04:45:44.204Z,13.50
2023-02-11T04:48:10.589Z,13.50
2023-02-11T04:50:36.929Z,13.00
2023-02-11T04:53:03.483Z,13.60
2023-02-11T04:55:29.842Z,11.73
2023-02-11T04:57:56.236Z,12.50
2023-02-11T05:00:22.820Z,13.00
2023-02-11T05:02:49.449Z,13.27
2023-02-11T05:05:15.790Z,13.10
2023-02-11T05:07:42.287Z,16.20
2023-02-11T05:10:08.875Z,13.07
2023-02-11T05:12:35.383Z,13.73
2023-02-11T05:15:01.736Z,14.20
2023-02-11T05:17:28.140Z,13.37
2023-02-11T05:19:54.465Z,14.30
2023-02-11T05:22:22.097Z,13.10
2023-02-11T05:24:48.753Z,13.50
2023-02-11T05:27:15.257Z,13.67
2023-02-11T05:29:41.596Z,14.40
2023-02-11T05:32:09.008Z,13.60
2023-02-11T05:34:36.265Z,12.80
2023-02-11T05:37:02.643Z,13.27
2023-02-11T05:39:29.177Z,13.37
2023-02-11T05:41:55.523Z,13.73
2023-02-11T05:44:21.971Z,13.60
2023-02-11T05:46:49.238Z,15.03
2023-02-11T05:49:17.064Z,12.73
2023-02-11T05:51:43.422Z,14.50
2023-02-11T05:54:09.816Z,13.80
2023-02-11T05:56:36.160Z,12.70
2023-02-11T05:59:02.744Z,14.30
2023-02-11T06:01:29.271Z,14.43
2023-02-11T06:03:55.790Z,13.67
2023-02-11T06:06:22.208Z,14.17
2023-02-11T06:08:48.839Z,15.37
2023-02-11T06:11:16.178Z,12.60
2023-02-11T06:13:42.922Z,13.13
2023-02-11T06:16:09.905Z,12.47
2023-02-11T06:18:36.450Z,12.50
2023-02-11T06:21:06.894Z,12.50
2023-02-11T06:23:33.282Z,14.80
2023-02-11T06:26:04.752Z,12.67
2023-02-11T06:28:31.738Z,13.43
2023-02-11T06:30:58.955Z,12.80
2023-02-11T06:33:25.556Z,12.00
2023-02-11T06:35:52.267Z,13.83
2023-02-11T06:38:18.834Z,13.03
2023-02-11T06:40:49.678Z,14.50
2023-02-11T06:43:16.584Z,13.27
2023-02-11T06:45:43.081Z,12.87
2023-02-11T06:48:09.598Z,13.70
2023-02-11T06:50:35.939Z,14.43
2023-02-11T06:53:02.354Z,14.03
2023-02-11T06:55:28.858Z,13.17
2023-02-11T06:57:55.219Z,15.13
2023-02-11T07:00:21.623Z,13.20
2023-02-11T07:02:47.992Z,13.27
2023-02-11T07:05:14.574Z,14.10
2023-02-11T07:07:40.918Z,13.50
2023-02-11T07:10:08.376Z,15.17
2023-02-11T07:12:34.709Z,14.20
2023-02-11T07:15:01.260Z,14.93
2023-02-11T07:17:27.605Z,14.07
2023-02-11T07:19:54.058Z,15.50
2023-02-11T07:22:20.429Z,14.87
2023-02-11T07:24:46.921Z,15.10
2023-02-11T07:27:13.444Z,15.33
2023-02-11T07:29:41.448Z,14.10
2023-02-11T07:32:07.868Z,15.37
2023-02-11T07:34:34.457Z,16.23
2023-02-11T07:37:00.827Z,15.77
2023-02-11T07:39:27.562Z,14.70
2023-02-11T07:41:54.325Z,16.37
2023-02-11T07:44:20.728Z,13.70
2023-02-11T07:46:49.482Z,16.03
2023-02-11T07:49:15.999Z,15.93
2023-02-11T07:51:42.335Z,15.60
2023-02-11T07:54:11.075Z,16.70
2023-02-11T07:56:37.445Z,15.50
2023-02-11T07:59:03.986Z,17.60
2023-02-11T08:01:31.052Z,16.53
2023-02-11T08:03:59.438Z,16.93
2023-02-11T08:06:28.113Z,17.77
2023-02-11T08:08:54.753Z,16.67
2023-02-11T08:11:26.079Z,18.07
2023-02-11T08:13:53.576Z,16.90
2023-02-11T08:16:32.484Z,16.10
2023-02-11T08:19:01.700Z,15.40
2023-02-11T08:21:28.819Z,15.93
2023-02-11T08:23:55.879Z,18.33
2023-02-11T08:26:25.473Z,16.87
2023-02-11T08:28:53.617Z,15.10
2023-02-11T08:31:23.562Z,17.40
2023-02-11T08:33:50.407Z,18.10
2023-02-11T08:36:19.681Z,18.37
2023-02-11T08:38:47.006Z,16.10
2023-02-11T08:41:16.984Z,16.23
2023-02-11T08:43:44.567Z,15.73
2023-02-11T08:46:14.197Z,15.63
2023-02-11T08:48:40.560Z,15.83
2023-02-11T08:51:14.120Z,15.70
2023-02-11T08:53:40.514Z,16.60
2023-02-11T08:56:07.347Z,14.70
2023-02-11T08:58:33.686Z,16.80
2023-02-11T09:01:00.400Z,14.07
2023-02-11T09:03:26.932Z,15.33
2023-02-11T09:05:53.462Z,15.43
2023-02-11T09:08:20.612Z,18.63
2023-02-11T09:10:47.034Z,13.80
2023-02-11T09:13:13.586Z,14.33
2023-02-11T09:15:39.960Z,15.50
2023-02-11T09:18:06.361Z,13.63
2023-02-11T09:20:32.886Z,15.80
2023-02-11T09:22:59.518Z,13.83
2023-02-11T09:25:25.983Z,13.13
2023-02-11T09:27:53.685Z,13.03
2023-02-11T09:30:20.329Z,12.93
2023-02-11T09:32:46.663Z,12.63
2023-02-11T09:35:13.257Z,12.17
2023-02-11T09:37:39.601Z,13.23
2023-02-11T09:40:06.575Z,11.57
2023-02-11T09:42:49.521Z,10.97
2023-02-11T09:45:20.549Z,11.30
2023-02-11T09:47:56.608Z,11.20
2023-02-11T09:50:29.278Z,11.20
2023-02-11T09:53:16.854Z,10.67
2023-02-11T09:55:46.864Z,10.20
2023-02-11T09:58:16.511Z,10.73
2023-02-11T10:01:05.875Z,12.17
2023-02-11T10:03:48.063Z,8.70
2023-02-11T10:06:36.593Z,8.97
2023-02-11T10:09:24.139Z,10.07
2023-02-11T10:12:02.564Z,8.53
2023-02-11T10:15:07.848Z,8.80
2023-02-11T10:18:02.112Z,8.70
2023-02-11T10:20:46.427Z,8.93
2023-02-11T10:23:22.259Z,9.00
2023-02-11T10:25:52.802Z,7.77
2023-02-11T10:28:27.966Z,8.33
2023-02-11T10:30:59.513Z,7.30
2023-02-11T10:33:34.333Z,8.00
2023-02-11T10:36:00.719Z,7.73
2023-02-11T10:38:27.783Z,7.47
2023-02-11T10:40:54.182Z,7.70
2023-02-11T10:43:26.244Z,7.00
2023-02-11T10:45:54.658Z,8.27
2023-02-11T10:48:42.704Z,9.50
2023-02-11T10:51:21.101Z,7.10
2023-02-11T10:54:11.960Z,7.40
2023-02-11T10:56:44.492Z,7.90
2023-02-11T10:59:30.433Z,7.60
2023-02-11T11:02:04.284Z,6.30
2023-02-11T11:04:30.641Z,7.70
2023-02-11T11:07:10.597Z,7.60
2023-02-11T11:09:55.747Z,6.77
2023-02-11T11:12:48.402Z,7.47
2023-02-11T11:15:21.938Z,6.33
2023-02-11T11:18:20.990Z,6.43
2023-02-11T11:21:00.775Z,6.97
2023-02-11T11:23:29.787Z,6.77
2023-02-11T11:26:08.242Z,6.97
2023-02-11T11:28:46.919Z,6.97
2023-02-11T11:31:18.967Z,5.93
2023-02-11T11:33:47.388Z,6.70
2023-02-11T11:36:19.855Z,6.40
2023-02-11T11:38:52.374Z,6.00
2023-02-11T11:41:32.879Z,5.70
2023-02-11T11:44:00.792Z,6.23
2023-02-11T11:46:31.474Z,6.00
2023-02-11T11:49:12.182Z,5.93
2023-02-11T11:51:41.919Z,5.83
2023-02-11T11:54:13.905Z,6.10
2023-02-11T11:56:54.696Z,6.20
2023-02-11T11:59:22.220Z,5.57
2023-02-11T12:01:48.552Z,6.87
2023-02-11T12:04:28.723Z,6.37
2023-02-11T12:07:13.563Z,5.63
2023-02-11T12:10:04.983Z,5.70
2023-02-11T12:12:46.782Z,7.70
2023-02-11T12:15:29.865Z,5.93
2023-02-11T12:18:36.030Z,5.20
2023-02-11T12:21:24.729Z,6.23
2023-02-11T12:24:03.252Z,6.00
2023-02-11T12:26:42.470Z,5.60
2023-02-11T12:29:24.187Z,5.07
2023-02-11T12:32:07.911Z,6.20
2023-02-11T12:34:55.347Z,5.60
2023-02-11T12:37:30.623Z,5.87
2023-02-11T12:40:18.461Z,5.70
2023-02-11T12:43:18.687Z,4.40
2023-02-11T12:46:11.769Z,4.50
2023-02-11T12:48:51.432Z,4.80
2023-02-11T12:51:42.048Z,4.37
2023-02-11T12:54:19.754Z,4.70
2023-02-11T12:57:35.645Z,4.80
2023-02-11T13:00:05.047Z,3.50
2023-02-11T13:02:56.168Z,5.63
2023-02-11T13:05:25.050Z,4.00
2023-02-11T13:08:14.108Z,4.37
2023-02-11T13:10:43.140Z,4.33
2023-02-11T13:13:20.972Z,4.83
2023-02-11T13:16:07.665Z,4.83
2023-02-11T13:18:49.425Z,4.90
2023-02-11T13:21:15.827Z,4.27
2023-02-11T13:24:07.552Z,4.60
2023-02-11T13:26:47.458Z,4.40
2023-02-11T13:29:32.441Z,5.60
2023-02-11T13:32:11.595Z,5.03
2023-02-11T13:34:43.846Z,5.17
2023-02-11T13:37:26.593Z,5.70
2023-02-11T13:40:23.784Z,5.17
2023-02-11T13:42:57.024Z,5.50
2023-02-11T13:45:29.175Z,4.33
2023-02-11T13:48:01.336Z,5.03
2023-02-11T13:50:30.291Z,5.13
2023-02-11T13:53:00.641Z,5.30
2023-02-11T13:55:27.943Z,5.53
2023-02-11T13:58:06.208Z,5.90
2023-02-11T14:00:35.660Z,5.30
2023-02-11T14:03:29.766Z,6.20
2023-02-11T14:06:26.810Z,5.60
2023-02-11T14:08:59.499Z,5.30
2023-02-11T14:12:14.472Z,6.00
2023-02-11T14:15:20.590Z,6.57
2023-02-11T14:17:47.166Z,6.23
2023-02-11T14:20:34.484Z,5.30
2023-02-11T14:23:01.186Z,5.27
2023-02-11T14:25:27.576Z,5.87
2023-02-11T14:28:04.825Z,6.07
2023-02-11T14:30:44.251Z,5.80
2023-02-11T14:33:25.954Z,5.87
2023-02-11T14:36:33.658Z,5.70
2023-02-11T14:39:25.104Z,6.63
2023-02-11T14:41:52.529Z,6.50
2023-02-11T14:44:27.842Z,7.20
2023-02-11T14:46:55.017Z,6.57
2023-02-11T14:49:28.686Z,8.20
2023-02-11T14:52:17.072Z,8.27
2023-02-11T14:54:45.199Z,6.80
2023-02-11T14:57:20.085Z,7.80
2023-02-11T14:59:55.168Z,8.00
2023-02-11T15:02:26.096Z,7.97
2023-02-11T15:04:52.590Z,7.83
2023-02-11T15:07:18.950Z,7.80
2023-02-11T15:09:52.630Z,6.70
2023-02-11T15:12:27.965Z,6.87
2023-02-11T15:15:00.411Z,6.30
2023-02-11T15:17:31.765Z,6.97
2023-02-11T15:20:01.757Z,7.90
2023-02-11T15:22:32.965Z,7.23
2023-02-11T15:25:10.612Z,7.33
2023-02-11T15:27:42.138Z,7.00
2023-02-11T15:30:23.484Z,7.17
2023-02-11T15:33:00.612Z,7.10
2023-02-11T15:35:40.896Z,8.50
2023-02-11T15:38:07.630Z,5.30
2023-02-11T15:40:36.783Z,5.97
2023-02-11T15:43:06.355Z,6.67
2023-02-11T15:45:34.475Z,6.60
2023-02-11T15:48:24.251Z,6.87
2023-02-11T15:50:58.663Z,6.37
2023-02-11T15:53:29.888Z,7.27
2023-02-11T15:56:14.611Z,9.43
2023-02-11T15:58:43.559Z,8.40
2023-02-11T16:01:10.824Z,8.60
2023-02-11T16:03:37.415Z,8.70
2023-02-11T16:06:17.287Z,9.43
2023-02-11T16:08:56.492Z,8.73
2023-02-11T16:11:33.548Z,10.33
2023-02-11T16:14:01.507Z,10.27
2023-02-11T16:16:31.590Z,8.57
2023-02-11T16:19:06.079Z,9.67
2023-02-11T16:21:45.225Z,9.00
2023-02-11T16:24:21.296Z,9.60
2023-02-11T16:26:50.312Z,7.57
2023-02-11T16:29:21.952Z,7.13
2023-02-11T16:31:50.248Z,9.40
2023-02-11T16:34:25.435Z,8.60
2023-02-11T16:36:52.756Z,7.60
2023-02-11T16:39:22.338Z,9.40
2023-02-11T16:41:50.629Z,7.70
2023-02-11T16:44:17.752Z,8.80
2023-02-11T16:46:44.858Z,7.30
2023-02-11T16:49:22.586Z,7.77
2023-02-11T16:51:51.709Z,7.20
2023-02-11T16:54:19.191Z,8.60
2023-02-11T16:56:45.909Z,7.90
2023-02-11T16:59:12.698Z,6.80
2023-02-11T17:01:40.969Z,7.47
2023-02-11T17:04:13.087Z,8.30
2023-02-11T17:06:39.465Z,8.20
2023-02-11T17:09:06.705Z,10.37
2023-02-11T17:11:33.127Z,10.40
2023-02-11T17:13:59.448Z,11.97
2023-02-11T17:16:27.632Z,9.87
2023-02-11T17:18:54.749Z,29.53
2023-02-11T17:21:21.125Z,9.97
2023-02-11T17:23:47.460Z,21.03
2023-02-11T17:26:13.832Z,13.10
2023-02-11T17:28:40.207Z,12.50
2023-02-11T17:31:08.529Z,16.30
2023-02-11T17:33:36.249Z,11.00
2023-02-11T17:36:07.710Z,10.83
2023-02-11T17:38:35.252Z,10.60
2023-02-11T17:41:03.111Z,22.43
2023-02-11T17:43:29.479Z,17.60
2023-02-11T17:45:56.075Z,12.43
2023-02-11T17:48:22.441Z,10.60
2023-02-11T17:50:48.858Z,10.70
2023-02-11T17:53:15.425Z,9.23
2023-02-11T17:55:42.114Z,9.50
2023-02-11T17:58:08.443Z,9.70
2023-02-11T18:00:34.824Z,9.60
2023-02-11T18:03:03.800Z,9.53
2023-02-11T18:05:34.772Z,11.57
2023-02-11T18:08:01.145Z,13.23
2023-02-11T18:10:27.632Z,10.07
2023-02-11T18:12:54.078Z,13.97
2023-02-11T18:15:20.474Z,14.40
2023-02-11T18:17:46.827Z,10.30
2023-02-11T18:20:13.636Z,14.60
2023-02-11T18:22:40.918Z,10.10
2023-02-11T18:25:08.685Z,10.57
2023-02-11T18:27:35.102Z,12.50
2023-02-11T18:30:01.508Z,14.70
2023-02-11T18:32:27.897Z,11.83
2023-02-11T18:34:54.275Z,15.93
2023-02-11T18:37:20.706Z,12.00
2023-02-11T18:39:47.090Z,12.90
2023-02-11T18:42:13.635Z,14.37
2023-02-11T18:44:40.334Z,16.67
2023-02-11T18:47:06.902Z,12.40
2023-02-11T18:49:35.580Z,16.10
2023-02-11T18:52:02.560Z,12.10
2023-02-11T18:54:28.908Z,12.30
2023-02-11T18:56:55.271Z,13.27
2023-02-11T18:59:21.609Z,12.50
2023-02-11T19:01:48.148Z,17.43
2023-02-11T19:04:19.626Z,13.40
2023-02-11T19:06:49.444Z,20.07
2023-02-11T19:09:19.338Z,13.87
2023-02-11T19:11:54.131Z,13.40
2023-02-11T19:14:26.541Z,13.73
2023-02-11T19:16:56.300Z,16.90
2023-02-11T19:19:25.676Z,20.03
2023-02-11T19:21:52.406Z,12.60
2023-02-11T19:24:19.779Z,10.67
2023-02-11T19:26:48.085Z,13.80
2023-02-11T19:29:14.804Z,13.63
2023-02-11T19:31:41.698Z,12.43
2023-02-11T19:34:08.202Z,13.17
2023-02-11T19:36:34.984Z,12.00
2023-02-11T19:39:02.779Z,11.70
2023-02-11T19:41:29.778Z,12.30
2023-02-11T19:43:56.716Z,12.33
2023-02-11T19:46:24.811Z,13.10
2023-02-11T19:48:52.013Z,12.70
2023-02-11T19:51:19.364Z,10.30
2023-02-11T19:53:46.653Z,10.20
2023-02-11T19:56:14.355Z,12.43
2023-02-11T19:58:41.754Z,32.47
2023-02-11T20:01:15.134Z,11.80
2023-02-11T20:03:42.673Z,14.20
2023-02-11T20:06:14.759Z,12.10
2023-02-11T20:08:41.497Z,16.70
2023-02-11T20:11:10.974Z,13.27
2023-02-11T20:13:38.305Z,15.00
2023-02-11T20:16:13.903Z,13.00
2023-02-11T20:18:40.630Z,14.70
2023-02-11T20:21:12.983Z,13.53
2023-02-11T20:23:40.624Z,15.00
2023-02-11T20:26:09.090Z,14.17
2023-02-11T20:28:36.432Z,14.00
2023-02-11T20:31:04.136Z,15.80
2023-02-11T20:33:31.199Z,14.07
2023-02-11T20:36:00.497Z,13.73
2023-02-11T20:38:27.975Z,12.80
2023-02-11T20:40:55.108Z,13.70
2023-02-11T20:43:22.333Z,13.93
2023-02-11T20:45:48.921Z,12.13
2023-02-11T20:48:15.354Z,12.93
2023-02-11T20:50:41.722Z,14.40
2023-02-11T20:53:08.138Z,12.73
2023-02-11T20:55:38.100Z,11.50
2023-02-11T20:58:07.954Z,11.80
2023-02-11T21:00:35.549Z,10.70
2023-02-11T21:03:01.934Z,12.07
2023-02-11T21:05:30.911Z,12.10
2023-02-11T21:07:57.388Z,9.80
2023-02-11T21:10:23.795Z,13.57
2023-02-11T21:12:50.149Z,11.97
2023-02-11T21:15:16.896Z,10.40
2023-02-11T21:17:43.226Z,11.70
2023-02-11T21:20:10.132Z,10.37
2023-02-11T21:22:36.557Z,9.87
2023-02-11T21:25:03.058Z,9.80
2023-02-11T21:27:33.161Z,9.03
2023-02-11T21:30:01.330Z,9.50
2023-02-11T21:32:28.046Z,9.80
2023-02-11T21:34:54.445Z,9.80
2023-02-11T21:37:21.220Z,10.33
2023-02-11T21:39:47.606Z,10.07
2023-02-11T21:42:13.949Z,10.00
2023-02-11T21:44:40.473Z,9.87
2023-02-11T21:47:06.907Z,9.77
2023-02-11T21:49:33.359Z,9.57
2023-02-11T21:52:00.031Z,10.57
2023-02-11T21:54:31.887Z,9.00
2023-02-11T21:56:59.654Z,9.00
2023-02-11T21:59:26.049Z,9.97
2023-02-11T22:01:52.382Z,10.10
2023-02-11T22:04:18.824Z,10.27
2023-02-11T22:06:45.250Z,10.03
2023-02-11T22:09:11.641Z,10.40
2023-02-11T22:11:38.365Z,9.13
2023-02-11T22:14:05.352Z,8.93
2023-02-11T22:16:31.805Z,8.37
2023-02-11T22:18:58.890Z,10.07
2023-02-11T22:21:25.627Z,8.30
2023-02-11T22:23:52.108Z,7.93
2023-02-11T22:26:21.837Z,6.47
2023-02-11T22:28:49.088Z,7.07
2023-02-11T22:31:18.125Z,6.97
2023-02-11T22:33:45.063Z,6.43
2023-02-11T22:36:25.994Z,6.50
2023-02-11T22:38:53.715Z,6.07
2023-02-11T22:41:20.802Z,5.47
2023-02-11T22:43:48.093Z,7.00
2023-02-11T22:46:16.703Z,6.00
2023-02-11T22:48:43.803Z,5.53
2023-02-11T22:51:12.820Z,6.40
2023-02-11T22:53:39.201Z,6.47
2023-02-11T22:56:08.198Z,5.90
2023-02-11T22:58:36.049Z,5.30
2023-02-11T23:01:03.256Z,4.90
2023-02-11T23:03:31.125Z,4.70
2023-02-11T23:05:59.269Z,4.40
2023-02-11T23:08:26.789Z,4.00
2023-02-11T23:10:53.423Z,4.00
2023-02-11T23:13:19.865Z,4.83
2023-02-11T23:15:47.403Z,4.93
2023-02-11T23:18:14.263Z,5.20
2023-02-11T23:20:43.530Z,3.97
2023-02-11T23:23:09.875Z,4.90
2023-02-11T23:25:44.374Z,5.17
2023-02-11T23:28:11.870Z,5.20
2023-02-11T23:30:39.352Z,4.47
2023-02-11T23:33:05.850Z,4.50
2023-02-11T23:35:32.289Z,5.20
2023-02-11T23:37:58.697Z,5.43
2023-02-11T23:40:25.074Z,5.23
2023-02-11T23:42:51.656Z,5.70
2023-02-11T23:45:18.117Z,5.13
2023-02-11T23:47:45.025Z,5.70
2023-02-11T23:50:11.596Z,5.10
2023-02-11T23:52:37.925Z,5.00
2023-02-11T23:55:04.815Z,5.27
2023-02-11T23:57:34.658Z,4.30
